sensor_id;sensor_type;location;lat;lon;timestamp;temperature;humidity
23748;DHT22;12054;53.662;10.126;2023-05-10T00:01:11;15.30;74.20
23748;DHT22;12054;53.662;10.126;2023-05-10T00:03:36;15.20;74.10
23748;DHT22;12054;53.662;10.126;2023-05-10T00:06:02;15.20;74.40
23748;DHT22;12054;53.662;10.126;2023-05-10T00:08:27;15.20;74.50
23748;DHT22;12054;53.662;10.126;2023-05-10T00:10:53;15.20;74.70
23748;DHT22;12054;53.662;10.126;2023-05-10T00:13:18;15.20;74.90
23748;DHT22;12054;53.662;10.126;2023-05-10T00:15:44;15.20;74.90
23748;DHT22;12054;53.662;10.126;2023-05-10T00:18:09;15.10;75.10
23748;DHT22;12054;53.662;10.126;2023-05-10T00:20:35;15.10;75.20
23748;DHT22;12054;53.662;10.126;2023-05-10T00:23:01;15.10;75.30
23748;DHT22;12054;53.662;10.126;2023-05-10T00:25:26;15.10;75.60
23748;DHT22;12054;53.662;10.126;2023-05-10T00:27:52;15.00;75.60
23748;DHT22;12054;53.662;10.126;2023-05-10T00:30:17;15.00;75.70
23748;DHT22;12054;53.662;10.126;2023-05-10T00:32:44;15.00;75.90
23748;DHT22;12054;53.662;10.126;2023-05-10T00:35:09;15.00;76.70
23748;DHT22;12054;53.662;10.126;2023-05-10T00:37:35;15.00;76.00
23748;DHT22;12054;53.662;10.126;2023-05-10T00:40:00;14.90;76.00
23748;DHT22;12054;53.662;10.126;2023-05-10T00:42:26;15.00;76.10
23748;DHT22;12054;53.662;10.126;2023-05-10T00:44:51;14.90;76.10
23748;DHT22;12054;53.662;10.126;2023-05-10T00:47:17;15.00;76.30
23748;DHT22;12054;53.662;10.126;2023-05-10T00:49:44;14.90;76.40
23748;DHT22;12054;53.662;10.126;2023-05-10T00:52:10;14.90;76.50
23748;DHT22;12054;53.662;10.126;2023-05-10T00:54:36;14.90;76.60
23748;DHT22;12054;53.662;10.126;2023-05-10T00:57:02;14.90;76.60
23748;DHT22;12054;53.662;10.126;2023-05-10T00:59:28;14.80;76.60
23748;DHT22;12054;53.662;10.126;2023-05-10T01:01:54;14.80;76.80
23748;DHT22;12054;53.662;10.126;2023-05-10T01:04:19;14.80;76.80
23748;DHT22;12054;53.662;10.126;2023-05-10T01:06:51;14.80;76.90
23748;DHT22;12054;53.662;10.126;2023-05-10T01:09:16;14.80;77.10
23748;DHT22;12054;53.662;10.126;2023-05-10T01:11:42;14.70;77.10
23748;DHT22;12054;53.662;10.126;2023-05-10T01:14:08;14.70;77.20
23748;DHT22;12054;53.662;10.126;2023-05-10T01:16:38;14.70;77.30
23748;DHT22;12054;53.662;10.126;2023-05-10T01:19:18;14.70;77.40
23748;DHT22;12054;53.662;10.126;2023-05-10T01:21:57;14.60;77.60
23748;DHT22;12054;53.662;10.126;2023-05-10T01:24:47;14.60;77.70
23748;DHT22;12054;53.662;10.126;2023-05-10T01:30:35;14.60;77.90
23748;DHT22;12054;53.662;10.126;2023-05-10T01:36:26;14.50;78.20
23748;DHT22;12054;53.662;10.126;2023-05-10T01:41:45;14.40;78.40
23748;DHT22;12054;53.662;10.126;2023-05-10T01:47:17;14.40;78.70
23748;DHT22;12054;53.662;10.126;2023-05-10T01:49:52;14.40;78.80
23748;DHT22;12054;53.662;10.126;2023-05-10T01:52:21;14.30;78.80
23748;DHT22;12054;53.662;10.126;2023-05-10T01:54:53;14.30;79.10
23748;DHT22;12054;53.662;10.126;2023-05-10T01:57:22;14.30;79.10
23748;DHT22;12054;53.662;10.126;2023-05-10T01:59:50;14.30;79.30
23748;DHT22;12054;53.662;10.126;2023-05-10T02:02:18;14.30;79.40
23748;DHT22;12054;53.662;10.126;2023-05-10T02:04:46;14.20;79.40
23748;DHT22;12054;53.662;10.126;2023-05-10T02:07:14;14.20;79.50
23748;DHT22;12054;53.662;10.126;2023-05-10T02:09:40;14.20;79.60
23748;DHT22;12054;53.662;10.126;2023-05-10T02:12:09;14.10;79.70
23748;DHT22;12054;53.662;10.126;2023-05-10T02:14:37;14.10;79.90
23748;DHT22;12054;53.662;10.126;2023-05-10T02:17:05;14.10;80.00
23748;DHT22;12054;53.662;10.126;2023-05-10T02:19:32;14.10;80.10
23748;DHT22;12054;53.662;10.126;2023-05-10T02:21:59;14.10;80.20
23748;DHT22;12054;53.662;10.126;2023-05-10T02:24:26;14.10;80.30
23748;DHT22;12054;53.662;10.126;2023-05-10T02:26:54;14.00;80.40
23748;DHT22;12054;53.662;10.126;2023-05-10T02:29:25;14.00;80.50
23748;DHT22;12054;53.662;10.126;2023-05-10T02:31:52;14.00;80.60
23748;DHT22;12054;53.662;10.126;2023-05-10T02:34:21;14.00;80.70
23748;DHT22;12054;53.662;10.126;2023-05-10T02:36:47;14.00;80.70
23748;DHT22;12054;53.662;10.126;2023-05-10T02:39:14;14.00;80.90
23748;DHT22;12054;53.662;10.126;2023-05-10T02:41:41;13.90;80.90
23748;DHT22;12054;53.662;10.126;2023-05-10T02:44:08;13.90;80.90
23748;DHT22;12054;53.662;10.126;2023-05-10T02:46:35;13.90;81.10
23748;DHT22;12054;53.662;10.126;2023-05-10T02:49:03;13.90;81.30
23748;DHT22;12054;53.662;10.126;2023-05-10T02:51:31;13.80;81.30
23748;DHT22;12054;53.662;10.126;2023-05-10T02:54:00;13.80;81.50
23748;DHT22;12054;53.662;10.126;2023-05-10T02:56:32;13.80;81.70
23748;DHT22;12054;53.662;10.126;2023-05-10T02:58:59;13.80;81.90
23748;DHT22;12054;53.662;10.126;2023-05-10T03:01:25;13.70;81.80
23748;DHT22;12054;53.662;10.126;2023-05-10T03:03:50;13.70;81.90
23748;DHT22;12054;53.662;10.126;2023-05-10T03:06:16;13.70;82.10
23748;DHT22;12054;53.662;10.126;2023-05-10T03:08:48;13.70;82.10
23748;DHT22;12054;53.662;10.126;2023-05-10T03:14:13;13.60;82.30
23748;DHT22;12054;53.662;10.126;2023-05-10T03:16:46;13.60;82.50
23748;DHT22;12054;53.662;10.126;2023-05-10T03:19:36;13.60;82.50
23748;DHT22;12054;53.662;10.126;2023-05-10T03:22:08;13.60;82.70
23748;DHT22;12054;53.662;10.126;2023-05-10T03:24:36;13.60;82.90
23748;DHT22;12054;53.662;10.126;2023-05-10T03:27:16;13.60;83.00
23748;DHT22;12054;53.662;10.126;2023-05-10T03:29:43;13.60;83.10
23748;DHT22;12054;53.662;10.126;2023-05-10T03:32:09;13.50;83.00
23748;DHT22;12054;53.662;10.126;2023-05-10T03:34:41;13.50;83.20
23748;DHT22;12054;53.662;10.126;2023-05-10T03:37:07;13.50;83.30
23748;DHT22;12054;53.662;10.126;2023-05-10T03:39:33;13.50;83.30
23748;DHT22;12054;53.662;10.126;2023-05-10T03:41:58;13.50;83.40
23748;DHT22;12054;53.662;10.126;2023-05-10T03:44:25;13.50;83.50
23748;DHT22;12054;53.662;10.126;2023-05-10T03:46:50;13.50;83.60
23748;DHT22;12054;53.662;10.126;2023-05-10T03:49:16;13.50;83.70
23748;DHT22;12054;53.662;10.126;2023-05-10T03:51:41;13.50;83.90
23748;DHT22;12054;53.662;10.126;2023-05-10T03:54:07;13.40;84.00
23748;DHT22;12054;53.662;10.126;2023-05-10T03:56:32;13.40;84.00
23748;DHT22;12054;53.662;10.126;2023-05-10T03:58:58;13.40;84.20
23748;DHT22;12054;53.662;10.126;2023-05-10T04:01:23;13.40;84.00
23748;DHT22;12054;53.662;10.126;2023-05-10T04:03:49;13.40;84.20
23748;DHT22;12054;53.662;10.126;2023-05-10T04:06:14;13.40;84.30
23748;DHT22;12054;53.662;10.126;2023-05-10T04:08:40;13.40;84.30
23748;DHT22;12054;53.662;10.126;2023-05-10T04:11:10;13.50;84.40
23748;DHT22;12054;53.662;10.126;2023-05-10T04:13:36;13.50;84.60
23748;DHT22;12054;53.662;10.126;2023-05-10T04:16:02;13.50;84.60
23748;DHT22;12054;53.662;10.126;2023-05-10T04:18:27;13.40;84.60
23748;DHT22;12054;53.662;10.126;2023-05-10T04:20:53;13.40;84.80
23748;DHT22;12054;53.662;10.126;2023-05-10T04:23:18;13.40;84.90
23748;DHT22;12054;53.662;10.126;2023-05-10T04:25:44;13.40;85.00
23748;DHT22;12054;53.662;10.126;2023-05-10T04:28:09;13.40;85.20
23748;DHT22;12054;53.662;10.126;2023-05-10T04:30:35;13.40;85.30
23748;DHT22;12054;53.662;10.126;2023-05-10T04:33:01;13.40;85.40
23748;DHT22;12054;53.662;10.126;2023-05-10T04:35:28;13.40;85.40
23748;DHT22;12054;53.662;10.126;2023-05-10T04:37:56;13.40;85.60
23748;DHT22;12054;53.662;10.126;2023-05-10T04:40:22;13.40;85.60
23748;DHT22;12054;53.662;10.126;2023-05-10T04:42:47;13.40;85.70
23748;DHT22;12054;53.662;10.126;2023-05-10T04:45:13;13.40;85.70
23748;DHT22;12054;53.662;10.126;2023-05-10T04:47:40;13.40;85.80
23748;DHT22;12054;53.662;10.126;2023-05-10T04:50:06;13.40;85.90
23748;DHT22;12054;53.662;10.126;2023-05-10T04:52:31;13.40;85.90
23748;DHT22;12054;53.662;10.126;2023-05-10T04:54:57;13.40;86.00
23748;DHT22;12054;53.662;10.126;2023-05-10T04:57:23;13.50;86.10
23748;DHT22;12054;53.662;10.126;2023-05-10T04:59:48;13.50;86.20
23748;DHT22;12054;53.662;10.126;2023-05-10T05:02:14;13.50;86.20
23748;DHT22;12054;53.662;10.126;2023-05-10T05:04:39;13.50;86.30
23748;DHT22;12054;53.662;10.126;2023-05-10T05:07:05;13.50;86.20
23748;DHT22;12054;53.662;10.126;2023-05-10T05:09:30;13.50;86.30
23748;DHT22;12054;53.662;10.126;2023-05-10T05:11:59;13.60;86.30
23748;DHT22;12054;53.662;10.126;2023-05-10T05:14:24;13.60;86.40
23748;DHT22;12054;53.662;10.126;2023-05-10T05:16:51;13.60;86.30
23748;DHT22;12054;53.662;10.126;2023-05-10T05:19:16;13.60;86.30
23748;DHT22;12054;53.662;10.126;2023-05-10T05:21:42;13.70;87.20
23748;DHT22;12054;53.662;10.126;2023-05-10T05:24:07;13.70;86.60
23748;DHT22;12054;53.662;10.126;2023-05-10T05:26:33;13.70;86.50
23748;DHT22;12054;53.662;10.126;2023-05-10T05:28:59;13.70;86.60
23748;DHT22;12054;53.662;10.126;2023-05-10T05:31:24;13.80;86.80
23748;DHT22;12054;53.662;10.126;2023-05-10T05:33:50;13.80;86.70
23748;DHT22;12054;53.662;10.126;2023-05-10T05:36:15;13.90;86.60
23748;DHT22;12054;53.662;10.126;2023-05-10T05:38:41;13.90;86.50
23748;DHT22;12054;53.662;10.126;2023-05-10T05:41:09;14.00;86.40
23748;DHT22;12054;53.662;10.126;2023-05-10T05:43:35;14.00;86.30
23748;DHT22;12054;53.662;10.126;2023-05-10T05:46:00;14.10;86.20
23748;DHT22;12054;53.662;10.126;2023-05-10T05:48:27;14.10;86.20
23748;DHT22;12054;53.662;10.126;2023-05-10T05:50:56;14.10;86.20
23748;DHT22;12054;53.662;10.126;2023-05-10T05:53:29;14.10;86.20
23748;DHT22;12054;53.662;10.126;2023-05-10T05:55:57;14.10;86.20
23748;DHT22;12054;53.662;10.126;2023-05-10T05:58:23;14.10;86.30
23748;DHT22;12054;53.662;10.126;2023-05-10T06:00:49;14.10;86.30
23748;DHT22;12054;53.662;10.126;2023-05-10T06:03:16;14.10;86.30
23748;DHT22;12054;53.662;10.126;2023-05-10T06:05:42;14.10;86.30
23748;DHT22;12054;53.662;10.126;2023-05-10T06:08:11;14.10;86.30
23748;DHT22;12054;53.662;10.126;2023-05-10T06:10:37;14.10;86.30
23748;DHT22;12054;53.662;10.126;2023-05-10T06:13:03;14.20;86.40
23748;DHT22;12054;53.662;10.126;2023-05-10T06:15:28;14.20;86.40
23748;DHT22;12054;53.662;10.126;2023-05-10T06:17:54;14.20;86.40
23748;DHT22;12054;53.662;10.126;2023-05-10T06:20:19;14.20;86.40
23748;DHT22;12054;53.662;10.126;2023-05-10T06:22:45;14.30;86.60
23748;DHT22;12054;53.662;10.126;2023-05-10T06:25:10;14.30;86.50
23748;DHT22;12054;53.662;10.126;2023-05-10T06:27:36;14.20;86.50
23748;DHT22;12054;53.662;10.126;2023-05-10T06:30:02;14.30;86.60
23748;DHT22;12054;53.662;10.126;2023-05-10T06:32:28;14.30;86.80
23748;DHT22;12054;53.662;10.126;2023-05-10T06:34:53;14.40;86.90
23748;DHT22;12054;53.662;10.126;2023-05-10T06:37:19;14.40;86.80
23748;DHT22;12054;53.662;10.126;2023-05-10T06:39:45;14.50;86.70
23748;DHT22;12054;53.662;10.126;2023-05-10T06:42:10;14.50;86.50
23748;DHT22;12054;53.662;10.126;2023-05-10T06:44:36;14.50;86.50
23748;DHT22;12054;53.662;10.126;2023-05-10T06:47:02;14.50;86.50
23748;DHT22;12054;53.662;10.126;2023-05-10T06:49:27;14.60;86.50
23748;DHT22;12054;53.662;10.126;2023-05-10T06:51:53;14.50;86.50
23748;DHT22;12054;53.662;10.126;2023-05-10T06:54:19;14.50;86.60
23748;DHT22;12054;53.662;10.126;2023-05-10T06:56:44;14.60;86.70
23748;DHT22;12054;53.662;10.126;2023-05-10T06:59:10;14.60;86.80
23748;DHT22;12054;53.662;10.126;2023-05-10T07:01:35;14.70;86.80
23748;DHT22;12054;53.662;10.126;2023-05-10T07:04:01;14.80;86.70
23748;DHT22;12054;53.662;10.126;2023-05-10T07:06:28;14.90;86.50
23748;DHT22;12054;53.662;10.126;2023-05-10T07:08:54;15.00;86.30
23748;DHT22;12054;53.662;10.126;2023-05-10T07:11:20;15.00;86.00
23748;DHT22;12054;53.662;10.126;2023-05-10T07:13:46;15.10;86.80
23748;DHT22;12054;53.662;10.126;2023-05-10T07:16:12;15.10;86.10
23748;DHT22;12054;53.662;10.126;2023-05-10T07:18:37;15.10;86.20
23748;DHT22;12054;53.662;10.126;2023-05-10T07:21:03;15.10;86.30
23748;DHT22;12054;53.662;10.126;2023-05-10T07:23:28;15.10;86.50
23748;DHT22;12054;53.662;10.126;2023-05-10T07:25:55;15.10;86.50
23748;DHT22;12054;53.662;10.126;2023-05-10T07:28:23;15.20;86.70
23748;DHT22;12054;53.662;10.126;2023-05-10T07:30:49;15.30;86.60
23748;DHT22;12054;53.662;10.126;2023-05-10T07:33:16;15.40;86.60
23748;DHT22;12054;53.662;10.126;2023-05-10T07:35:42;15.50;86.60
23748;DHT22;12054;53.662;10.126;2023-05-10T07:38:07;15.50;86.50
23748;DHT22;12054;53.662;10.126;2023-05-10T07:40:33;15.60;86.40
23748;DHT22;12054;53.662;10.126;2023-05-10T07:42:59;15.60;86.30
23748;DHT22;12054;53.662;10.126;2023-05-10T07:45:26;15.60;86.30
23748;DHT22;12054;53.662;10.126;2023-05-10T07:47:52;15.60;86.20
23748;DHT22;12054;53.662;10.126;2023-05-10T07:50:17;15.70;86.20
23748;DHT22;12054;53.662;10.126;2023-05-10T07:52:43;15.70;86.30
23748;DHT22;12054;53.662;10.126;2023-05-10T07:55:09;15.70;86.30
23748;DHT22;12054;53.662;10.126;2023-05-10T07:57:35;15.70;86.30
23748;DHT22;12054;53.662;10.126;2023-05-10T08:00:00;15.80;86.30
23748;DHT22;12054;53.662;10.126;2023-05-10T08:02:26;15.80;86.30
23748;DHT22;12054;53.662;10.126;2023-05-10T08:04:52;15.80;86.40
23748;DHT22;12054;53.662;10.126;2023-05-10T08:07:18;15.90;86.50
23748;DHT22;12054;53.662;10.126;2023-05-10T08:09:43;15.90;86.40
23748;DHT22;12054;53.662;10.126;2023-05-10T08:12:09;16.00;86.40
23748;DHT22;12054;53.662;10.126;2023-05-10T08:14:34;16.10;86.40
23748;DHT22;12054;53.662;10.126;2023-05-10T08:17:02;16.10;86.30
23748;DHT22;12054;53.662;10.126;2023-05-10T08:19:27;16.10;86.20
23748;DHT22;12054;53.662;10.126;2023-05-10T08:21:53;16.10;86.00
23748;DHT22;12054;53.662;10.126;2023-05-10T08:24:21;16.20;86.10
23748;DHT22;12054;53.662;10.126;2023-05-10T08:26:46;16.20;86.10
23748;DHT22;12054;53.662;10.126;2023-05-10T08:29:13;16.20;86.30
23748;DHT22;12054;53.662;10.126;2023-05-10T08:31:38;16.30;86.50
23748;DHT22;12054;53.662;10.126;2023-05-10T08:34:04;16.20;86.40
23748;DHT22;12054;53.662;10.126;2023-05-10T08:36:35;16.30;86.50
23748;DHT22;12054;53.662;10.126;2023-05-10T08:39:04;16.40;86.50
23748;DHT22;12054;53.662;10.126;2023-05-10T08:41:30;16.40;86.50
23748;DHT22;12054;53.662;10.126;2023-05-10T08:43:59;16.40;86.40
23748;DHT22;12054;53.662;10.126;2023-05-10T08:46:28;16.40;86.40
23748;DHT22;12054;53.662;10.126;2023-05-10T08:48:56;16.50;86.50
23748;DHT22;12054;53.662;10.126;2023-05-10T08:51:24;16.50;86.40
23748;DHT22;12054;53.662;10.126;2023-05-10T08:53:52;16.50;86.30
23748;DHT22;12054;53.662;10.126;2023-05-10T08:56:18;16.60;86.20
23748;DHT22;12054;53.662;10.126;2023-05-10T08:58:45;16.60;85.90
23748;DHT22;12054;53.662;10.126;2023-05-10T09:01:11;16.70;85.70
23748;DHT22;12054;53.662;10.126;2023-05-10T09:03:38;16.70;85.60
23748;DHT22;12054;53.662;10.126;2023-05-10T09:06:04;16.70;85.40
23748;DHT22;12054;53.662;10.126;2023-05-10T09:08:30;16.70;85.20
23748;DHT22;12054;53.662;10.126;2023-05-10T09:10:56;16.70;85.10
23748;DHT22;12054;53.662;10.126;2023-05-10T09:13:23;16.70;85.00
23748;DHT22;12054;53.662;10.126;2023-05-10T09:15:49;16.80;85.20
23748;DHT22;12054;53.662;10.126;2023-05-10T09:18:15;16.90;85.10
23748;DHT22;12054;53.662;10.126;2023-05-10T09:20:41;16.90;84.90
23748;DHT22;12054;53.662;10.126;2023-05-10T09:23:07;16.90;84.70
23748;DHT22;12054;53.662;10.126;2023-05-10T09:25:33;16.90;84.80
23748;DHT22;12054;53.662;10.126;2023-05-10T09:27:59;16.90;84.80
23748;DHT22;12054;53.662;10.126;2023-05-10T09:30:26;16.90;84.90
23748;DHT22;12054;53.662;10.126;2023-05-10T09:32:53;16.90;84.90
23748;DHT22;12054;53.662;10.126;2023-05-10T09:35:21;16.90;85.00
23748;DHT22;12054;53.662;10.126;2023-05-10T09:37:49;16.90;85.00
23748;DHT22;12054;53.662;10.126;2023-05-10T09:40:20;16.90;85.10
23748;DHT22;12054;53.662;10.126;2023-05-10T09:43:01;16.90;85.20
23748;DHT22;12054;53.662;10.126;2023-05-10T09:45:28;16.90;85.50
23748;DHT22;12054;53.662;10.126;2023-05-10T09:47:54;16.90;85.60
23748;DHT22;12054;53.662;10.126;2023-05-10T09:50:21;16.90;85.50
23748;DHT22;12054;53.662;10.126;2023-05-10T09:52:51;16.90;86.20
23748;DHT22;12054;53.662;10.126;2023-05-10T09:55:19;17.00;85.90
23748;DHT22;12054;53.662;10.126;2023-05-10T09:57:46;17.00;85.80
23748;DHT22;12054;53.662;10.126;2023-05-10T10:00:19;17.00;85.90
23748;DHT22;12054;53.662;10.126;2023-05-10T10:02:47;17.00;86.10
23748;DHT22;12054;53.662;10.126;2023-05-10T10:05:13;17.00;86.20
23748;DHT22;12054;53.662;10.126;2023-05-10T10:07:39;17.00;86.30
23748;DHT22;12054;53.662;10.126;2023-05-10T10:10:05;17.10;86.50
23748;DHT22;12054;53.662;10.126;2023-05-10T10:12:36;17.10;86.60
23748;DHT22;12054;53.662;10.126;2023-05-10T10:15:02;17.10;86.70
23748;DHT22;12054;53.662;10.126;2023-05-10T10:17:30;17.10;86.80
23748;DHT22;12054;53.662;10.126;2023-05-10T10:19:57;17.10;87.20
23748;DHT22;12054;53.662;10.126;2023-05-10T10:22:23;17.10;88.00
23748;DHT22;12054;53.662;10.126;2023-05-10T10:24:50;17.00;88.40
23748;DHT22;12054;53.662;10.126;2023-05-10T10:27:28;17.00;88.80
23748;DHT22;12054;53.662;10.126;2023-05-10T10:30:02;17.00;89.70
23748;DHT22;12054;53.662;10.126;2023-05-10T10:32:44;16.90;90.00
23748;DHT22;12054;53.662;10.126;2023-05-10T10:35:13;16.90;90.20
23748;DHT22;12054;53.662;10.126;2023-05-10T10:37:46;16.90;90.30
23748;DHT22;12054;53.662;10.126;2023-05-10T10:40:29;16.90;90.70
23748;DHT22;12054;53.662;10.126;2023-05-10T10:42:56;16.90;91.40
23748;DHT22;12054;53.662;10.126;2023-05-10T10:45:23;16.90;91.80
23748;DHT22;12054;53.662;10.126;2023-05-10T10:47:48;16.90;92.40
23748;DHT22;12054;53.662;10.126;2023-05-10T10:50:15;16.80;92.90
23748;DHT22;12054;53.662;10.126;2023-05-10T10:52:44;16.80;93.30
23748;DHT22;12054;53.662;10.126;2023-05-10T10:55:28;16.80;93.80
23748;DHT22;12054;53.662;10.126;2023-05-10T10:57:56;16.80;94.50
23748;DHT22;12054;53.662;10.126;2023-05-10T11:00:37;16.80;94.50
23748;DHT22;12054;53.662;10.126;2023-05-10T11:03:06;16.80;95.20
23748;DHT22;12054;53.662;10.126;2023-05-10T11:05:43;16.80;95.60
23748;DHT22;12054;53.662;10.126;2023-05-10T11:08:28;16.80;96.20
23748;DHT22;12054;53.662;10.126;2023-05-10T11:13:42;16.80;96.80
23748;DHT22;12054;53.662;10.126;2023-05-10T11:18:38;16.80;97.70
23748;DHT22;12054;53.662;10.126;2023-05-10T11:21:04;16.70;98.10
23748;DHT22;12054;53.662;10.126;2023-05-10T11:23:57;16.70;98.50
23748;DHT22;12054;53.662;10.126;2023-05-10T11:26:23;16.70;99.10
23748;DHT22;12054;53.662;10.126;2023-05-10T11:28:52;16.70;99.60
23748;DHT22;12054;53.662;10.126;2023-05-10T11:31:20;16.60;99.90
23748;DHT22;12054;53.662;10.126;2023-05-10T11:33:48;16.60;99.90
23748;DHT22;12054;53.662;10.126;2023-05-10T11:36:16;16.50;99.90
23748;DHT22;12054;53.662;10.126;2023-05-10T11:38:42;16.50;99.90
23748;DHT22;12054;53.662;10.126;2023-05-10T11:41:11;16.40;99.90
23748;DHT22;12054;53.662;10.126;2023-05-10T11:43:39;16.40;99.90
23748;DHT22;12054;53.662;10.126;2023-05-10T11:46:10;16.40;99.90
23748;DHT22;12054;53.662;10.126;2023-05-10T11:48:37;16.40;99.90
23748;DHT22;12054;53.662;10.126;2023-05-10T11:51:03;16.40;99.90
23748;DHT22;12054;53.662;10.126;2023-05-10T11:53:31;16.30;99.90
23748;DHT22;12054;53.662;10.126;2023-05-10T11:56:11;16.40;99.90
23748;DHT22;12054;53.662;10.126;2023-05-10T11:58:38;16.30;99.90
23748;DHT22;12054;53.662;10.126;2023-05-10T12:01:05;16.30;99.90
23748;DHT22;12054;53.662;10.126;2023-05-10T12:03:32;16.30;99.90
23748;DHT22;12054;53.662;10.126;2023-05-10T12:05:59;16.30;99.90
23748;DHT22;12054;53.662;10.126;2023-05-10T12:08:27;16.30;99.90
23748;DHT22;12054;53.662;10.126;2023-05-10T12:11:03;16.20;99.90
23748;DHT22;12054;53.662;10.126;2023-05-10T12:13:28;16.20;99.90
23748;DHT22;12054;53.662;10.126;2023-05-10T12:15:57;16.20;99.90
23748;DHT22;12054;53.662;10.126;2023-05-10T12:18:24;16.20;99.90
23748;DHT22;12054;53.662;10.126;2023-05-10T12:20:52;16.10;99.90
23748;DHT22;12054;53.662;10.126;2023-05-10T12:23:21;16.10;99.90
23748;DHT22;12054;53.662;10.126;2023-05-10T12:25:46;16.10;99.90
23748;DHT22;12054;53.662;10.126;2023-05-10T12:28:12;16.10;99.90
23748;DHT22;12054;53.662;10.126;2023-05-10T12:30:38;16.10;99.90
23748;DHT22;12054;53.662;10.126;2023-05-10T12:33:09;16.10;99.90
23748;DHT22;12054;53.662;10.126;2023-05-10T12:35:49;16.10;99.90
23748;DHT22;12054;53.662;10.126;2023-05-10T12:38:29;16.10;99.90
23748;DHT22;12054;53.662;10.126;2023-05-10T12:40:57;16.10;99.90
23748;DHT22;12054;53.662;10.126;2023-05-10T12:43:23;16.20;99.90
23748;DHT22;12054;53.662;10.126;2023-05-10T12:45:48;16.20;99.90
23748;DHT22;12054;53.662;10.126;2023-05-10T12:48:15;16.10;99.90
23748;DHT22;12054;53.662;10.126;2023-05-10T12:50:40;16.10;99.90
23748;DHT22;12054;53.662;10.126;2023-05-10T12:53:06;16.10;99.90
23748;DHT22;12054;53.662;10.126;2023-05-10T12:55:32;16.10;99.90
23748;DHT22;12054;53.662;10.126;2023-05-10T12:57:57;16.10;99.90
23748;DHT22;12054;53.662;10.126;2023-05-10T13:00:23;16.10;99.90
23748;DHT22;12054;53.662;10.126;2023-05-10T13:02:48;16.10;99.90
23748;DHT22;12054;53.662;10.126;2023-05-10T13:05:14;16.10;99.90
23748;DHT22;12054;53.662;10.126;2023-05-10T13:07:40;16.20;99.90
23748;DHT22;12054;53.662;10.126;2023-05-10T13:10:06;16.20;99.90
23748;DHT22;12054;53.662;10.126;2023-05-10T13:12:32;16.20;99.90
23748;DHT22;12054;53.662;10.126;2023-05-10T13:14:58;16.20;99.90
23748;DHT22;12054;53.662;10.126;2023-05-10T13:17:25;16.30;99.90
23748;DHT22;12054;53.662;10.126;2023-05-10T13:19:51;16.20;99.90
23748;DHT22;12054;53.662;10.126;2023-05-10T13:22:16;16.30;99.90
23748;DHT22;12054;53.662;10.126;2023-05-10T13:24:42;16.30;99.90
23748;DHT22;12054;53.662;10.126;2023-05-10T13:27:07;16.30;99.90
23748;DHT22;12054;53.662;10.126;2023-05-10T13:29:33;16.40;99.90
23748;DHT22;12054;53.662;10.126;2023-05-10T13:31:58;16.40;99.90
23748;DHT22;12054;53.662;10.126;2023-05-10T13:34:24;16.40;99.90
23748;DHT22;12054;53.662;10.126;2023-05-10T13:36:50;16.40;99.90
23748;DHT22;12054;53.662;10.126;2023-05-10T13:39:16;16.40;99.90
23748;DHT22;12054;53.662;10.126;2023-05-10T13:41:45;16.50;99.90
23748;DHT22;12054;53.662;10.126;2023-05-10T13:44:12;16.50;99.90
23748;DHT22;12054;53.662;10.126;2023-05-10T13:46:37;16.60;99.90
23748;DHT22;12054;53.662;10.126;2023-05-10T13:49:04;16.60;99.90
23748;DHT22;12054;53.662;10.126;2023-05-10T13:51:29;16.70;99.90
23748;DHT22;12054;53.662;10.126;2023-05-10T13:53:57;16.70;99.90
23748;DHT22;12054;53.662;10.126;2023-05-10T13:56:22;16.70;99.90
23748;DHT22;12054;53.662;10.126;2023-05-10T13:58:48;16.70;99.90
23748;DHT22;12054;53.662;10.126;2023-05-10T14:01:13;16.80;99.90
23748;DHT22;12054;53.662;10.126;2023-05-10T14:03:39;16.70;99.90
23748;DHT22;12054;53.662;10.126;2023-05-10T14:06:04;16.70;99.90
23748;DHT22;12054;53.662;10.126;2023-05-10T14:08:30;16.80;99.90
23748;DHT22;12054;53.662;10.126;2023-05-10T14:10:55;16.80;99.90
23748;DHT22;12054;53.662;10.126;2023-05-10T14:13:22;16.80;99.90
23748;DHT22;12054;53.662;10.126;2023-05-10T14:15:47;16.80;99.90
23748;DHT22;12054;53.662;10.126;2023-05-10T14:18:13;16.80;99.90
23748;DHT22;12054;53.662;10.126;2023-05-10T14:20:38;16.80;99.90
23748;DHT22;12054;53.662;10.126;2023-05-10T14:23:04;16.90;99.90
23748;DHT22;12054;53.662;10.126;2023-05-10T14:25:29;16.90;99.90
23748;DHT22;12054;53.662;10.126;2023-05-10T14:27:55;17.00;99.90
23748;DHT22;12054;53.662;10.126;2023-05-10T14:30:20;17.00;99.90
23748;DHT22;12054;53.662;10.126;2023-05-10T14:32:46;17.00;99.90
23748;DHT22;12054;53.662;10.126;2023-05-10T14:35:11;17.10;99.90
23748;DHT22;12054;53.662;10.126;2023-05-10T14:37:38;17.10;99.90
23748;DHT22;12054;53.662;10.126;2023-05-10T14:40:04;17.10;99.90
23748;DHT22;12054;53.662;10.126;2023-05-10T14:42:29;17.10;99.90
23748;DHT22;12054;53.662;10.126;2023-05-10T14:44:56;17.10;99.90
23748;DHT22;12054;53.662;10.126;2023-05-10T14:47:22;17.10;99.90
23748;DHT22;12054;53.662;10.126;2023-05-10T14:49:47;17.10;99.90
23748;DHT22;12054;53.662;10.126;2023-05-10T14:52:13;17.00;99.90
23748;DHT22;12054;53.662;10.126;2023-05-10T14:54:39;17.10;99.90
23748;DHT22;12054;53.662;10.126;2023-05-10T14:57:06;17.10;99.90
23748;DHT22;12054;53.662;10.126;2023-05-10T14:59:31;17.10;99.90
23748;DHT22;12054;53.662;10.126;2023-05-10T15:01:57;17.10;99.90
23748;DHT22;12054;53.662;10.126;2023-05-10T15:04:22;17.10;99.90
23748;DHT22;12054;53.662;10.126;2023-05-10T15:06:48;17.10;99.90
23748;DHT22;12054;53.662;10.126;2023-05-10T15:09:13;17.10;99.90
23748;DHT22;12054;53.662;10.126;2023-05-10T15:11:39;17.10;99.90
23748;DHT22;12054;53.662;10.126;2023-05-10T15:14:05;17.10;99.90
23748;DHT22;12054;53.662;10.126;2023-05-10T15:16:31;17.10;99.90
23748;DHT22;12054;53.662;10.126;2023-05-10T15:18:56;17.10;99.90
23748;DHT22;12054;53.662;10.126;2023-05-10T15:21:22;17.10;99.90
23748;DHT22;12054;53.662;10.126;2023-05-10T15:23:47;17.10;99.90
23748;DHT22;12054;53.662;10.126;2023-05-10T15:26:13;17.20;99.90
23748;DHT22;12054;53.662;10.126;2023-05-10T15:28:38;17.20;99.90
23748;DHT22;12054;53.662;10.126;2023-05-10T15:31:04;17.20;99.90
23748;DHT22;12054;53.662;10.126;2023-05-10T15:33:29;17.20;99.90
23748;DHT22;12054;53.662;10.126;2023-05-10T15:35:55;17.20;99.90